Time;durP1;ratioP1;P1;durP2;ratioP2;P2;SDS_P1;SDS_P2;PMS_P1;PMS_P2;Temp;Humidity;BMP_temperature;BMP_pressure;BME280_temperature;BME280_humidity;BME280_pressure;Samples;Min_cycle;Max_cycle;Signal;HPM_P1;HPM_P2
2021/09/19 00:00:39;;;;;;;2.75;2.50;;;;;;;;;;4432348;32;20225;-52
2021/09/19 00:03:05;;;;;;;6.20;2.30;;;;;;;;;;4417395;32;20652;-52
2021/09/19 00:05:30;;;;;;;8.93;2.40;;;;;;;;;;4432287;32;20624;-53
2021/09/19 00:07:55;;;;;;;9.10;3.08;;;;;;;;;;4431882;32;20272;-53
2021/09/19 00:10:21;;;;;;;5.62;4.05;;;;;;;;;;4420883;32;20209;-53
2021/09/19 00:12:46;;;;;;;6.70;3.80;;;;;;;;;;4416680;32;20302;-53
2021/09/19 00:15:15;;;;;;;4.62;2.58;;;;;;;;;;4430456;32;20778;-54
2021/09/19 00:17:40;;;;;;;3.35;1.80;;;;;;;;;;4431597;32;20290;-53
2021/09/19 00:20:07;;;;;;;3.03;2.35;;;;;;;;;;4431547;32;20216;-54
2021/09/19 00:22:34;;;;;;;2.78;2.12;;;;;;;;;;4431928;32;20618;-55
2021/09/19 00:25:00;;;;;;;6.93;3.55;;;;;;;;;;4431202;32;20592;-54
2021/09/19 00:27:26;;;;;;;6.87;2.92;;;;;;;;;;4431733;32;20358;-54
2021/09/19 00:29:51;;;;;;;16.15;4.60;;;;;;;;;;4431152;32;20220;-53
2021/09/19 00:32:17;;;;;;;5.28;3.10;;;;;;;;;;4428958;32;20655;-54
2021/09/19 00:34:42;;;;;;;18.20;4.68;;;;;;;;;;4416471;32;20279;-54
2021/09/19 00:37:08;;;;;;;10.65;3.85;;;;;;;;;;4416208;32;20217;-53
2021/09/19 00:39:34;;;;;;;11.30;4.97;;;;;;;;;;4414986;32;20255;-54
2021/09/19 00:41:59;;;;;;;19.95;5.40;;;;;;;;;;4429946;32;20244;-55
2021/09/19 00:44:28;;;;;;;7.80;3.95;;;;;;;;;;4431766;32;20217;-54
2021/09/19 00:46:54;;;;;;;9.75;4.07;;;;;;;;;;4422291;32;20235;-54
2021/09/19 00:49:20;;;;;;;5.75;3.58;;;;;;;;;;4431901;32;20239;-54
2021/09/19 00:51:46;;;;;;;4.45;3.20;;;;;;;;;;4431110;32;20570;-54
2021/09/19 00:54:13;;;;;;;4.87;3.00;;;;;;;;;;4431604;32;20309;-54
2021/09/19 00:56:40;;;;;;;4.25;2.72;;;;;;;;;;4429476;32;20378;-56
2021/09/19 00:59:08;;;;;;;4.03;2.17;;;;;;;;;;4423359;32;20600;-54
2021/09/19 01:01:34;;;;;;;4.62;2.95;;;;;;;;;;4430543;32;20227;-54
2021/09/19 01:04:01;;;;;;;5.43;3.47;;;;;;;;;;4430426;32;20662;-54
2021/09/19 01:06:27;;;;;;;3.50;2.70;;;;;;;;;;4430936;32;20212;-53
2021/09/19 01:08:53;;;;;;;3.53;2.60;;;;;;;;;;4429340;32;20272;-53
2021/09/19 01:11:20;;;;;;;4.47;2.35;;;;;;;;;;4416325;32;20288;-55
2021/09/19 01:13:47;;;;;;;5.50;2.75;;;;;;;;;;4420399;32;20233;-53
2021/09/19 01:16:15;;;;;;;3.12;2.30;;;;;;;;;;4430806;32;20356;-53
2021/09/19 01:18:42;;;;;;;12.50;3.20;;;;;;;;;;4431210;32;20284;-53
2021/09/19 01:21:08;;;;;;;5.32;2.78;;;;;;;;;;4431494;32;20768;-52
2021/09/19 01:23:36;;;;;;;5.65;2.70;;;;;;;;;;4431330;32;20240;-52
2021/09/19 01:26:02;;;;;;;3.17;2.42;;;;;;;;;;4421560;32;20568;-53
2021/09/19 01:28:28;;;;;;;4.28;2.78;;;;;;;;;;4419836;32;20287;-53
2021/09/19 01:30:54;;;;;;;8.50;3.28;;;;;;;;;;4434627;32;20255;-53
2021/09/19 01:33:20;;;;;;;6.85;3.17;;;;;;;;;;4428089;32;20677;-55
2021/09/19 01:35:45;;;;;;;8.52;3.62;;;;;;;;;;4435004;32;20243;-53
2021/09/19 01:38:11;;;;;;;9.05;3.62;;;;;;;;;;4434531;32;20318;-53
2021/09/19 01:40:36;;;;;;;7.18;3.35;;;;;;;;;;4429353;32;20259;-53
2021/09/19 01:43:03;;;;;;;6.50;3.92;;;;;;;;;;4420192;32;20257;-53
2021/09/19 01:45:29;;;;;;;11.55;4.47;;;;;;;;;;4431556;32;20245;-53
2021/09/19 01:47:56;;;;;;;12.40;4.20;;;;;;;;;;4419143;32;20276;-54
2021/09/19 01:50:24;;;;;;;9.90;3.80;;;;;;;;;;4434357;32;20322;-53
2021/09/19 01:52:50;;;;;;;7.12;3.17;;;;;;;;;;4433995;32;20265;-53
2021/09/19 01:55:15;;;;;;;7.82;3.37;;;;;;;;;;4419447;32;20256;-53
2021/09/19 01:57:41;;;;;;;5.70;4.07;;;;;;;;;;4419373;32;20511;-53
2021/09/19 02:00:08;;;;;;;5.60;2.85;;;;;;;;;;4418874;32;20221;-53
2021/09/19 02:02:34;;;;;;;3.45;2.17;;;;;;;;;;4419226;32;20206;-54
2021/09/19 02:05:01;;;;;;;5.12;2.50;;;;;;;;;;4418998;32;20348;-53
2021/09/19 02:07:26;;;;;;;3.25;1.80;;;;;;;;;;4419252;32;20297;-54
2021/09/19 02:09:51;;;;;;;3.90;2.37;;;;;;;;;;4413517;32;20360;-54
2021/09/19 02:12:17;;;;;;;5.35;2.08;;;;;;;;;;4434012;32;20220;-53
2021/09/19 02:14:43;;;;;;;6.35;2.58;;;;;;;;;;4433938;32;20220;-54
2021/09/19 02:17:12;;;;;;;3.35;2.08;;;;;;;;;;4434492;32;20234;-54
2021/09/19 02:19:37;;;;;;;2.75;2.00;;;;;;;;;;4433783;32;20228;-54
2021/09/19 02:22:09;;;;;;;9.90;2.33;;;;;;;;;;4434382;32;20268;-54
2021/09/19 02:24:35;;;;;;;4.25;2.05;;;;;;;;;;4425008;32;20244;-55
2021/09/19 02:27:01;;;;;;;3.75;2.12;;;;;;;;;;4427566;32;20304;-55
2021/09/19 02:29:26;;;;;;;2.90;2.12;;;;;;;;;;4418709;32;20213;-55
2021/09/19 02:31:52;;;;;;;3.15;1.83;;;;;;;;;;4418639;32;20206;-55
2021/09/19 02:34:17;;;;;;;6.65;2.60;;;;;;;;;;4425556;32;20225;-55
2021/09/19 02:36:43;;;;;;;4.62;2.50;;;;;;;;;;4418718;32;20291;-55
2021/09/19 02:39:09;;;;;;;2.65;2.08;;;;;;;;;;4426086;32;20389;-55
2021/09/19 02:41:36;;;;;;;3.90;2.33;;;;;;;;;;4421294;32;20227;-55
2021/09/19 02:44:02;;;;;;;2.47;2.08;;;;;;;;;;4425204;32;20310;-55
2021/09/19 02:46:28;;;;;;;4.10;2.55;;;;;;;;;;4424475;32;20234;-54
2021/09/19 02:48:53;;;;;;;4.57;2.70;;;;;;;;;;4424272;32;20272;-55
2021/09/19 02:51:19;;;;;;;4.85;2.17;;;;;;;;;;4433738;32;20240;-54
2021/09/19 02:53:44;;;;;;;2.80;1.92;;;;;;;;;;4428872;32;20399;-55
2021/09/19 02:56:09;;;;;;;2.95;2.17;;;;;;;;;;4418596;32;20342;-55
2021/09/19 02:58:37;;;;;;;6.37;2.83;;;;;;;;;;4422450;32;20718;-54
2021/09/19 03:01:03;;;;;;;3.12;2.50;;;;;;;;;;4432810;32;20253;-54
2021/09/19 03:03:28;;;;;;;3.33;3.03;;;;;;;;;;4433867;32;20307;-55
2021/09/19 03:05:54;;;;;;;4.07;2.30;;;;;;;;;;4433881;32;20220;-54
2021/09/19 03:08:19;;;;;;;3.87;2.33;;;;;;;;;;4433258;32;20272;-55
2021/09/19 03:10:45;;;;;;;5.00;2.47;;;;;;;;;;4419288;32;20568;-54
2021/09/19 03:13:10;;;;;;;3.50;2.65;;;;;;;;;;4425439;32;20307;-58
2021/09/19 03:15:36;;;;;;;5.70;2.85;;;;;;;;;;4433756;32;20232;-54
2021/09/19 03:18:01;;;;;;;3.50;2.28;;;;;;;;;;4433413;32;20264;-56
2021/09/19 03:20:27;;;;;;;3.75;2.75;;;;;;;;;;4433232;32;20224;-54
2021/09/19 03:22:52;;;;;;;3.30;2.33;;;;;;;;;;4433830;32;20302;-55
2021/09/19 03:25:18;;;;;;;3.25;2.95;;;;;;;;;;4416789;32;20380;-54
2021/09/19 03:27:44;;;;;;;7.93;3.22;;;;;;;;;;4418449;32;20303;-55
2021/09/19 03:30:11;;;;;;;4.35;3.00;;;;;;;;;;4431282;32;20284;-54
2021/09/19 03:32:38;;;;;;;4.90;2.95;;;;;;;;;;4427803;32;20243;-53
2021/09/19 03:35:03;;;;;;;6.22;2.83;;;;;;;;;;4417997;32;20293;-53
2021/09/19 03:37:29;;;;;;;4.47;2.83;;;;;;;;;;4417798;32;20288;-54
2021/09/19 03:39:55;;;;;;;5.87;3.60;;;;;;;;;;4429150;32;20384;-53
2021/09/19 03:42:20;;;;;;;5.68;2.92;;;;;;;;;;4417325;32;20302;-53
2021/09/19 03:44:47;;;;;;;4.55;3.10;;;;;;;;;;4417553;32;20243;-53
2021/09/19 03:47:12;;;;;;;10.88;3.72;;;;;;;;;;4446485;32;20212;-53
2021/09/19 03:49:38;;;;;;;10.30;3.33;;;;;;;;;;4437923;32;20298;-54
2021/09/19 03:52:03;;;;;;;6.25;2.85;;;;;;;;;;4431735;32;20243;-53
2021/09/19 03:54:29;;;;;;;3.65;2.50;;;;;;;;;;4432812;32;20283;-53
2021/09/19 03:56:54;;;;;;;4.32;3.15;;;;;;;;;;4432780;32;20224;-52
2021/09/19 03:59:20;;;;;;;4.62;3.50;;;;;;;;;;4432801;32;20243;-54
2021/09/19 04:01:45;;;;;;;7.05;3.28;;;;;;;;;;4425623;32;20309;-53
2021/09/19 04:04:11;;;;;;;4.57;2.95;;;;;;;;;;4417331;32;20291;-54
2021/09/19 04:06:36;;;;;;;6.93;2.87;;;;;;;;;;4430555;32;20208;-53
2021/09/19 04:09:02;;;;;;;3.80;2.92;;;;;;;;;;4429850;32;20376;-53
2021/09/19 04:11:28;;;;;;;11.95;4.47;;;;;;;;;;4417550;32;20193;-53
2021/09/19 04:13:53;;;;;;;10.43;4.70;;;;;;;;;;4416526;32;20302;-53
2021/09/19 04:16:18;;;;;;;8.95;3.10;;;;;;;;;;4417314;32;20249;-54
2021/09/19 04:18:44;;;;;;;11.73;3.15;;;;;;;;;;4417089;32;20364;-53
2021/09/19 04:21:09;;;;;;;4.93;3.30;;;;;;;;;;4417250;32;20345;-53
2021/09/19 04:23:35;;;;;;;5.07;3.22;;;;;;;;;;4416758;32;20649;-53
2021/09/19 04:26:00;;;;;;;6.87;2.80;;;;;;;;;;4417376;32;20300;-53
2021/09/19 04:28:26;;;;;;;6.97;3.50;;;;;;;;;;4417227;32;20292;-52
2021/09/19 04:30:51;;;;;;;2.80;2.08;;;;;;;;;;4417571;32;20295;-53
2021/09/19 04:33:17;;;;;;;3.78;2.70;;;;;;;;;;4423836;32;20276;-53
2021/09/19 04:35:42;;;;;;;3.40;2.80;;;;;;;;;;4417169;32;20228;-52
2021/09/19 04:38:08;;;;;;;7.50;3.03;;;;;;;;;;4418587;32;20337;-54
2021/09/19 04:40:33;;;;;;;6.40;3.85;;;;;;;;;;4427308;32;20250;-52
2021/09/19 04:42:59;;;;;;;6.50;3.22;;;;;;;;;;4416561;32;20267;-52
2021/09/19 04:45:24;;;;;;;5.45;2.72;;;;;;;;;;4408402;32;20295;-53
2021/09/19 04:47:50;;;;;;;4.50;2.40;;;;;;;;;;4448163;32;20324;-53
2021/09/19 04:50:16;;;;;;;4.18;2.70;;;;;;;;;;4433251;32;20213;-52
2021/09/19 04:52:41;;;;;;;5.12;2.75;;;;;;;;;;4432232;32;20425;-53
2021/09/19 04:55:07;;;;;;;4.85;2.72;;;;;;;;;;4431650;32;20255;-52
2021/09/19 04:57:32;;;;;;;5.75;3.28;;;;;;;;;;4432505;32;20337;-53
2021/09/19 05:00:00;;;;;;;4.50;2.45;;;;;;;;;;4431972;32;20248;-52
2021/09/19 05:02:26;;;;;;;8.82;4.22;;;;;;;;;;4431606;32;20285;-53
2021/09/19 05:04:51;;;;;;;7.20;5.00;;;;;;;;;;4429117;32;20302;-53
2021/09/19 05:07:17;;;;;;;10.35;5.68;;;;;;;;;;4416926;32;20613;-53
2021/09/19 05:09:42;;;;;;;3.67;3.35;;;;;;;;;;4424064;32;20605;-53
2021/09/19 05:12:08;;;;;;;4.22;3.00;;;;;;;;;;4432178;32;20285;-53
2021/09/19 05:14:33;;;;;;;9.70;3.85;;;;;;;;;;4421541;32;20279;-53
2021/09/19 05:16:59;;;;;;;4.03;3.03;;;;;;;;;;4417420;32;20520;-54
2021/09/19 05:19:24;;;;;;;6.95;4.10;;;;;;;;;;4416724;32;20245;-52
2021/09/19 05:21:50;;;;;;;6.12;3.15;;;;;;;;;;4416655;32;20347;-52
2021/09/19 05:24:15;;;;;;;4.32;3.28;;;;;;;;;;4416161;32;20660;-52
2021/09/19 05:26:41;;;;;;;3.67;3.25;;;;;;;;;;4416475;32;20284;-52
2021/09/19 05:29:06;;;;;;;5.60;3.20;;;;;;;;;;4416696;32;20294;-53
2021/09/19 05:31:31;;;;;;;9.73;3.03;;;;;;;;;;4417025;32;20262;-53
2021/09/19 05:33:58;;;;;;;7.53;3.03;;;;;;;;;;4423251;32;20307;-54
2021/09/19 05:36:24;;;;;;;4.25;2.97;;;;;;;;;;4406086;32;20251;-54
2021/09/19 05:38:49;;;;;;;6.60;4.30;;;;;;;;;;4426028;32;20276;-53
2021/09/19 05:41:15;;;;;;;7.28;4.87;;;;;;;;;;4426059;32;20287;-54
2021/09/19 05:43:40;;;;;;;7.32;3.70;;;;;;;;;;4431686;32;20318;-55
2021/09/19 05:46:06;;;;;;;5.15;3.80;;;;;;;;;;4431362;32;20217;-53
2021/09/19 05:48:32;;;;;;;8.70;3.40;;;;;;;;;;4432045;32;20292;-54
2021/09/19 05:50:57;;;;;;;6.43;4.25;;;;;;;;;;4420448;32;20293;-52
2021/09/19 05:53:23;;;;;;;6.60;4.18;;;;;;;;;;4431764;32;20306;-52
2021/09/19 05:55:48;;;;;;;4.12;3.17;;;;;;;;;;4423000;32;20225;-52
2021/09/19 05:58:14;;;;;;;5.87;4.00;;;;;;;;;;4429468;32;20643;-52
2021/09/19 06:00:39;;;;;;;6.75;4.43;;;;;;;;;;4430120;32;20224;-53
2021/09/19 06:03:04;;;;;;;7.35;3.40;;;;;;;;;;4430851;32;20342;-52
2021/09/19 06:05:30;;;;;;;5.90;3.17;;;;;;;;;;4430466;32;20224;-52
2021/09/19 06:07:55;;;;;;;4.82;3.12;;;;;;;;;;4431755;32;20268;-53
2021/09/19 06:10:21;;;;;;;4.10;2.97;;;;;;;;;;4419355;32;20575;-52
2021/09/19 06:12:47;;;;;;;3.78;3.30;;;;;;;;;;4416139;32;20276;-52
2021/09/19 06:15:12;;;;;;;4.80;3.33;;;;;;;;;;4426959;32;20311;-52
2021/09/19 06:17:38;;;;;;;5.05;3.83;;;;;;;;;;4434332;32;20280;-52
2021/09/19 06:20:04;;;;;;;6.53;3.62;;;;;;;;;;4433836;32;20250;-52
2021/09/19 06:22:29;;;;;;;4.95;3.67;;;;;;;;;;4434924;32;20334;-52
2021/09/19 06:24:55;;;;;;;12.40;3.42;;;;;;;;;;4434046;32;20249;-52
2021/09/19 06:27:21;;;;;;;5.68;3.28;;;;;;;;;;4433750;32;20412;-52
2021/09/19 06:29:46;;;;;;;5.68;4.20;;;;;;;;;;4432505;32;20220;-52
2021/09/19 06:32:11;;;;;;;5.35;3.60;;;;;;;;;;4432250;32;20252;-53
2021/09/19 06:34:39;;;;;;;6.28;3.47;;;;;;;;;;4418529;32;20213;-54
2021/09/19 06:37:05;;;;;;;7.65;4.28;;;;;;;;;;4418260;32;20605;-53
2021/09/19 06:39:31;;;;;;;8.20;4.07;;;;;;;;;;4424844;32;20774;-54
2021/09/19 06:41:57;;;;;;;7.95;4.15;;;;;;;;;;4416423;32;20237;-53
2021/09/19 06:44:22;;;;;;;6.25;5.20;;;;;;;;;;4426761;32;20221;-54
2021/09/19 06:46:48;;;;;;;7.68;5.10;;;;;;;;;;4421387;32;20229;-53
2021/09/19 06:49:13;;;;;;;7.35;4.65;;;;;;;;;;4425698;32;20287;-54
2021/09/19 06:51:39;;;;;;;8.57;6.43;;;;;;;;;;4433459;32;20700;-55
2021/09/19 06:54:04;;;;;;;6.97;4.75;;;;;;;;;;4432898;32;20287;-55
2021/09/19 06:56:30;;;;;;;7.30;4.87;;;;;;;;;;4433408;32;20201;-55
2021/09/19 06:58:56;;;;;;;5.62;4.40;;;;;;;;;;4432510;32;20748;-55
2021/09/19 07:01:23;;;;;;;9.40;4.43;;;;;;;;;;4432666;32;20343;-54
2021/09/19 07:03:49;;;;;;;7.03;4.60;;;;;;;;;;4432734;32;20349;-55
2021/09/19 07:06:16;;;;;;;7.07;5.15;;;;;;;;;;4433671;32;20225;-54
2021/09/19 07:08:41;;;;;;;7.97;3.87;;;;;;;;;;4431765;32;20296;-56
2021/09/19 07:11:07;;;;;;;6.12;4.68;;;;;;;;;;4417536;32;20208;-55
2021/09/19 07:13:32;;;;;;;7.60;4.28;;;;;;;;;;4417614;32;20712;-55
2021/09/19 07:15:58;;;;;;;8.48;4.75;;;;;;;;;;4433004;32;20733;-53
2021/09/19 07:18:24;;;;;;;5.50;4.70;;;;;;;;;;4433186;32;20299;-53
2021/09/19 07:20:52;;;;;;;5.32;3.87;;;;;;;;;;4432511;32;20769;-53
2021/09/19 07:23:19;;;;;;;5.60;3.75;;;;;;;;;;4431536;32;20189;-54
2021/09/19 07:25:45;;;;;;;9.38;5.47;;;;;;;;;;4417564;32;20720;-53
2021/09/19 07:28:10;;;;;;;10.60;4.82;;;;;;;;;;4418421;32;20283;-54
2021/09/19 07:30:36;;;;;;;6.00;4.87;;;;;;;;;;4433164;32;20275;-53
2021/09/19 07:33:02;;;;;;;6.75;3.85;;;;;;;;;;4425875;32;20284;-55
2021/09/19 07:35:28;;;;;;;20.37;4.97;;;;;;;;;;4430062;32;20713;-55
2021/09/19 07:37:54;;;;;;;5.00;4.20;;;;;;;;;;4432966;32;20287;-56
2021/09/19 07:40:20;;;;;;;7.87;5.00;;;;;;;;;;4427850;32;20364;-55
2021/09/19 07:42:46;;;;;;;5.03;3.85;;;;;;;;;;4417964;32;20615;-55
2021/09/19 07:45:12;;;;;;;10.18;6.15;;;;;;;;;;4417126;32;20264;-54
2021/09/19 07:47:38;;;;;;;10.18;5.37;;;;;;;;;;4417657;32;20309;-54
2021/09/19 07:50:05;;;;;;;9.85;6.40;;;;;;;;;;4429380;32;20277;-54
2021/09/19 07:52:31;;;;;;;9.18;5.22;;;;;;;;;;4432834;32;20335;-55
2021/09/19 07:54:56;;;;;;;6.22;4.53;;;;;;;;;;4432335;32;20733;-54
2021/09/19 07:57:23;;;;;;;6.55;4.55;;;;;;;;;;4433150;32;20267;-55
2021/09/19 07:59:50;;;;;;;5.07;4.45;;;;;;;;;;4423750;32;20965;-53
2021/09/19 08:02:15;;;;;;;6.03;4.55;;;;;;;;;;4425986;32;20200;-53
2021/09/19 08:04:41;;;;;;;9.80;5.03;;;;;;;;;;4431933;32;20322;-53
2021/09/19 08:07:06;;;;;;;11.95;5.62;;;;;;;;;;4432493;32;20483;-52
2021/09/19 08:09:32;;;;;;;8.55;4.90;;;;;;;;;;4425168;32;20299;-53
2021/09/19 08:11:58;;;;;;;5.65;4.18;;;;;;;;;;4416569;32;20260;-53
2021/09/19 08:14:23;;;;;;;7.07;4.62;;;;;;;;;;4422208;32;20224;-53
2021/09/19 08:16:49;;;;;;;6.57;4.10;;;;;;;;;;4432300;32;20234;-53
2021/09/19 08:19:15;;;;;;;9.82;5.25;;;;;;;;;;4424302;32;20255;-53
2021/09/19 08:21:40;;;;;;;8.88;5.62;;;;;;;;;;4416780;32;20193;-52
2021/09/19 08:24:10;;;;;;;6.90;4.32;;;;;;;;;;4423662;32;20319;-52
2021/09/19 08:26:37;;;;;;;6.75;4.35;;;;;;;;;;4432261;32;20659;-52
2021/09/19 08:29:03;;;;;;;13.52;4.82;;;;;;;;;;4432327;32;20209;-53
2021/09/19 08:31:29;;;;;;;8.27;4.80;;;;;;;;;;4432162;32;20259;-53
2021/09/19 08:33:55;;;;;;;11.68;5.47;;;;;;;;;;4431291;32;20315;-53
2021/09/19 08:36:20;;;;;;;7.90;5.75;;;;;;;;;;4432300;32;20534;-52
2021/09/19 08:38:46;;;;;;;5.90;4.25;;;;;;;;;;4425752;32;20241;-52
2021/09/19 08:41:15;;;;;;;11.27;4.68;;;;;;;;;;4424963;32;20244;-53
2021/09/19 08:43:41;;;;;;;5.60;4.47;;;;;;;;;;4431541;32;20231;-52
2021/09/19 08:46:06;;;;;;;9.63;4.25;;;;;;;;;;4432065;32;20240;-52
2021/09/19 08:48:33;;;;;;;10.73;4.18;;;;;;;;;;4431615;32;20295;-52
2021/09/19 08:50:58;;;;;;;6.57;5.18;;;;;;;;;;4428361;32;20774;-54
2021/09/19 08:53:26;;;;;;;7.78;5.10;;;;;;;;;;4423249;32;20292;-53
2021/09/19 08:55:52;;;;;;;6.80;5.18;;;;;;;;;;4427730;32;20311;-52
2021/09/19 08:58:17;;;;;;;9.15;5.32;;;;;;;;;;4425244;32;20299;-53
2021/09/19 09:00:47;;;;;;;5.15;4.00;;;;;;;;;;4426079;32;20270;-53
2021/09/19 09:03:15;;;;;;;7.18;3.90;;;;;;;;;;4420554;32;20378;-54
2021/09/19 09:05:40;;;;;;;10.18;5.30;;;;;;;;;;4426661;32;20267;-54
2021/09/19 09:08:07;;;;;;;12.10;5.78;;;;;;;;;;4420952;32;20636;-54
2021/09/19 09:10:42;;;;;;;7.62;4.90;;;;;;;;;;4420169;32;20251;-54
2021/09/19 09:13:13;;;;;;;6.20;4.25;;;;;;;;;;4431152;32;20272;-55
2021/09/19 09:15:51;;;;;;;7.68;4.82;;;;;;;;;;4432001;32;20299;-53
2021/09/19 09:18:33;;;;;;;8.13;5.05;;;;;;;;;;4431649;32;20225;-54
2021/09/19 09:21:00;;;;;;;8.63;4.93;;;;;;;;;;4416610;32;20790;-55
2021/09/19 09:23:39;;;;;;;7.95;4.95;;;;;;;;;;4421412;32;20267;-54
2021/09/19 09:26:16;;;;;;;7.82;5.75;;;;;;;;;;4416426;32;20208;-53
2021/09/19 09:28:46;;;;;;;9.50;4.95;;;;;;;;;;4420462;32;20349;-54
2021/09/19 09:31:17;;;;;;;5.95;4.40;;;;;;;;;;4432029;32;20323;-53
2021/09/19 09:33:57;;;;;;;6.22;4.62;;;;;;;;;;4423848;32;20223;-52
2021/09/19 09:36:31;;;;;;;4.37;3.97;;;;;;;;;;4431557;32;20648;-52
2021/09/19 09:38:57;;;;;;;7.80;4.65;;;;;;;;;;4426324;32;20224;-52
2021/09/19 09:41:42;;;;;;;4.78;4.22;;;;;;;;;;4430855;32;20584;-52
2021/09/19 09:44:32;;;;;;;5.50;4.22;;;;;;;;;;4429767;32;20230;-53
2021/09/19 09:46:59;;;;;;;8.77;5.65;;;;;;;;;;4424844;32;20362;-52
2021/09/19 09:49:58;;;;;;;6.87;4.32;;;;;;;;;;4421259;32;20625;-53
2021/09/19 09:52:29;;;;;;;14.52;5.32;;;;;;;;;;4387154;32;20687;-53
2021/09/19 09:54:54;;;;;;;5.55;4.30;;;;;;;;;;4422468;32;20311;-53
2021/09/19 09:57:43;;;;;;;5.90;4.57;;;;;;;;;;4419061;32;20296;-53
2021/09/19 10:00:15;;;;;;;11.32;4.60;;;;;;;;;;4414882;32;20319;-52
2021/09/19 10:02:44;;;;;;;5.82;4.55;;;;;;;;;;4431059;32;20215;-53
2021/09/19 10:05:12;;;;;;;8.07;5.25;;;;;;;;;;4432008;32;20713;-52
2021/09/19 10:07:39;;;;;;;6.20;4.40;;;;;;;;;;4434131;32;20302;-52
2021/09/19 10:10:08;;;;;;;7.32;4.70;;;;;;;;;;4424511;32;20217;-52
2021/09/19 10:12:33;;;;;;;8.77;5.12;;;;;;;;;;4419529;32;20227;-52
2021/09/19 10:14:59;;;;;;;8.70;5.75;;;;;;;;;;4426565;32;20257;-52
2021/09/19 10:17:27;;;;;;;9.13;5.25;;;;;;;;;;4422764;32;20769;-54
2021/09/19 10:19:55;;;;;;;7.12;4.50;;;;;;;;;;4434214;32;20636;-53
2021/09/19 10:22:55;;;;;;;6.53;4.90;;;;;;;;;;4434639;32;20264;-54
2021/09/19 10:25:42;;;;;;;5.60;4.18;;;;;;;;;;4418126;32;20248;-53
2021/09/19 10:28:16;;;;;;;6.72;3.78;;;;;;;;;;4419453;32;20712;-54
2021/09/19 10:31:22;;;;;;;7.75;4.25;;;;;;;;;;4423479;32;20323;-53
2021/09/19 10:33:50;;;;;;;8.32;3.90;;;;;;;;;;4423378;32;20229;-54
2021/09/19 10:36:24;;;;;;;7.60;4.15;;;;;;;;;;4425601;32;20569;-53
2021/09/19 10:38:50;;;;;;;12.65;3.78;;;;;;;;;;4439207;32;20227;-53
2021/09/19 10:41:22;;;;;;;5.68;3.83;;;;;;;;;;4432826;32;20237;-53
2021/09/19 10:43:55;;;;;;;5.78;2.95;;;;;;;;;;4432263;32;20193;-54
2021/09/19 10:46:36;;;;;;;9.00;3.55;;;;;;;;;;4426445;32;20310;-55
2021/09/19 10:49:17;;;;;;;6.05;4.22;;;;;;;;;;4418682;32;20450;-54
2021/09/19 10:52:01;;;;;;;10.20;3.85;;;;;;;;;;4432073;32;20193;-54
2021/09/19 10:54:44;;;;;;;10.52;3.33;;;;;;;;;;4429565;32;20287;-53
2021/09/19 10:57:19;;;;;;;7.35;3.70;;;;;;;;;;4430242;32;20293;-53
2021/09/19 11:00:11;;;;;;;7.07;3.70;;;;;;;;;;4431559;32;20213;-53
2021/09/19 11:02:42;;;;;;;7.68;3.33;;;;;;;;;;4417997;32;20675;-53
2021/09/19 11:05:28;;;;;;;6.93;3.53;;;;;;;;;;4418016;32;20633;-54
2021/09/19 11:08:19;;;;;;;4.78;2.72;;;;;;;;;;4418630;32;20243;-54
2021/09/19 11:10:45;;;;;;;4.28;3.20;;;;;;;;;;4425016;32;20236;-53
2021/09/19 11:13:19;;;;;;;6.47;3.65;;;;;;;;;;4432961;32;20315;-53
2021/09/19 11:16:05;;;;;;;5.90;3.25;;;;;;;;;;4433390;32;20266;-53
2021/09/19 11:18:37;;;;;;;5.20;3.00;;;;;;;;;;4433938;32;20283;-54
2021/09/19 11:21:11;;;;;;;9.93;3.62;;;;;;;;;;4433918;32;20252;-54
2021/09/19 11:23:40;;;;;;;4.37;2.97;;;;;;;;;;4433471;32;20807;-53
2021/09/19 11:26:06;;;;;;;7.18;3.70;;;;;;;;;;4433158;32;20251;-53
2021/09/19 11:28:36;;;;;;;5.15;2.70;;;;;;;;;;4433327;32;20302;-54
2021/09/19 11:31:02;;;;;;;3.87;2.42;;;;;;;;;;4431714;32;20326;-53
2021/09/19 11:33:30;;;;;;;6.40;3.87;;;;;;;;;;4422859;32;20736;-53
2021/09/19 11:36:04;;;;;;;7.60;3.35;;;;;;;;;;4412474;32;20343;-53
2021/09/19 11:38:37;;;;;;;8.77;3.08;;;;;;;;;;4430744;32;20624;-53
2021/09/19 11:41:04;;;;;;;7.78;2.58;;;;;;;;;;4432251;32;20244;-53
2021/09/19 11:43:33;;;;;;;4.85;2.53;;;;;;;;;;4430719;32;20228;-53
2021/09/19 11:46:00;;;;;;;9.70;3.15;;;;;;;;;;4420909;32;20331;-53
2021/09/19 11:48:26;;;;;;;6.87;2.65;;;;;;;;;;4430984;32;20250;-54
2021/09/19 11:50:52;;;;;;;6.47;2.12;;;;;;;;;;4433151;32;20691;-53
2021/09/19 11:53:18;;;;;;;3.35;2.58;;;;;;;;;;4433050;32;20201;-53
2021/09/19 11:55:46;;;;;;;5.75;2.50;;;;;;;;;;4433252;32;20264;-53
2021/09/19 11:58:19;;;;;;;5.07;1.80;;;;;;;;;;4432709;32;20299;-53
2021/09/19 12:00:49;;;;;;;10.52;2.78;;;;;;;;;;4433002;32;20282;-53
2021/09/19 12:03:17;;;;;;;5.93;2.75;;;;;;;;;;4417583;32;20256;-53
2021/09/19 12:05:43;;;;;;;5.55;2.05;;;;;;;;;;4432935;32;20499;-53
2021/09/19 12:08:08;;;;;;;11.07;2.40;;;;;;;;;;4418522;32;20392;-53
2021/09/19 12:10:35;;;;;;;6.90;2.20;;;;;;;;;;4420238;32;20268;-53
2021/09/19 12:13:30;;;;;;;5.57;2.53;;;;;;;;;;4417360;32;20232;-53
2021/09/19 12:16:07;;;;;;;3.33;2.30;;;;;;;;;;4426757;32;20253;-53
2021/09/19 12:18:35;;;;;;;3.62;2.28;;;;;;;;;;4431395;32;20283;-53
2021/09/19 12:21:07;;;;;;;3.22;2.20;;;;;;;;;;4427878;32;20547;-53
2021/09/19 12:23:52;;;;;;;7.68;2.15;;;;;;;;;;4410667;32;20372;-53
2021/09/19 12:26:21;;;;;;;8.10;2.58;;;;;;;;;;4422437;32;20210;-54
2021/09/19 12:28:52;;;;;;;10.90;2.85;;;;;;;;;;4421203;32;20221;-55
2021/09/19 12:31:37;;;;;;;10.98;2.87;;;;;;;;;;4426120;32;20659;-53
2021/09/19 12:34:05;;;;;;;11.40;2.62;;;;;;;;;;4418089;32;20290;-53
2021/09/19 12:36:40;;;;;;;4.68;2.97;;;;;;;;;;4429022;32;20270;-53
2021/09/19 12:39:06;;;;;;;8.35;2.78;;;;;;;;;;4423621;32;20248;-54
2021/09/19 12:41:32;;;;;;;9.80;2.83;;;;;;;;;;4427527;32;20331;-54
2021/09/19 12:43:58;;;;;;;7.70;2.33;;;;;;;;;;4424814;32;20310;-53
2021/09/19 12:46:23;;;;;;;3.92;1.95;;;;;;;;;;4426253;32;20221;-53
2021/09/19 12:48:49;;;;;;;10.10;2.47;;;;;;;;;;4417174;32;20754;-55
2021/09/19 12:51:16;;;;;;;4.70;2.20;;;;;;;;;;4431427;32;20277;-52
2021/09/19 12:53:46;;;;;;;6.78;2.50;;;;;;;;;;4431915;32;20317;-54
2021/09/19 12:56:12;;;;;;;6.90;3.20;;;;;;;;;;4424825;32;20815;-52
2021/09/19 12:58:38;;;;;;;14.60;2.53;;;;;;;;;;4420255;32;20383;-53
2021/09/19 13:01:04;;;;;;;5.47;2.28;;;;;;;;;;4432005;32;20248;-53
2021/09/19 13:03:30;;;;;;;2.15;1.45;;;;;;;;;;4432245;32;20639;-54
2021/09/19 13:05:56;;;;;;;3.03;1.52;;;;;;;;;;4432159;32;20317;-53
2021/09/19 13:08:23;;;;;;;2.75;1.30;;;;;;;;;;4432156;32;20763;-53
2021/09/19 13:10:49;;;;;;;7.25;1.60;;;;;;;;;;4417545;32;20233;-53
2021/09/19 13:13:16;;;;;;;5.07;1.42;;;;;;;;;;4417862;32;20349;-55
2021/09/19 13:15:42;;;;;;;1.70;1.00;;;;;;;;;;4432380;32;20334;-53
2021/09/19 13:18:08;;;;;;;2.75;0.95;;;;;;;;;;4432375;32;20280;-55
2021/09/19 13:20:33;;;;;;;4.97;1.60;;;;;;;;;;4432216;32;20575;-54
2021/09/19 13:22:59;;;;;;;1.48;1.12;;;;;;;;;;4431644;32;20366;-53
2021/09/19 13:25:25;;;;;;;1.25;0.95;;;;;;;;;;4433450;32;20335;-53
2021/09/19 13:27:52;;;;;;;2.42;1.23;;;;;;;;;;4435095;32;20322;-53
2021/09/19 13:30:19;;;;;;;4.10;0.93;;;;;;;;;;4435349;32;20232;-53
2021/09/19 13:32:45;;;;;;;2.33;1.00;;;;;;;;;;4429833;32;20239;-54
2021/09/19 13:35:12;;;;;;;2.58;1.08;;;;;;;;;;4419975;32;20237;-53
2021/09/19 13:37:37;;;;;;;1.67;1.00;;;;;;;;;;4420249;32;20208;-53
2021/09/19 13:40:05;;;;;;;3.10;1.12;;;;;;;;;;4427376;32;20268;-55
2021/09/19 13:42:30;;;;;;;6.35;1.48;;;;;;;;;;4435307;32;20622;-55
2021/09/19 13:44:57;;;;;;;1.05;0.95;;;;;;;;;;4428502;32;20306;-56
2021/09/19 13:47:22;;;;;;;6.65;1.60;;;;;;;;;;4434576;32;20276;-55
2021/09/19 13:49:48;;;;;;;7.25;1.30;;;;;;;;;;4423395;32;20217;-55
2021/09/19 13:52:14;;;;;;;4.25;1.77;;;;;;;;;;4429264;32;20267;-54
2021/09/19 13:54:39;;;;;;;13.73;3.05;;;;;;;;;;4434507;32;20249;-54
2021/09/19 13:57:05;;;;;;;4.68;1.30;;;;;;;;;;4435299;32;20240;-54
2021/09/19 13:59:31;;;;;;;2.22;1.40;;;;;;;;;;4434243;32;20267;-54
2021/09/19 14:01:56;;;;;;;7.90;1.42;;;;;;;;;;4428371;32;20247;-54
2021/09/19 14:04:24;;;;;;;4.78;1.42;;;;;;;;;;4434376;32;20317;-54
2021/09/19 14:06:50;;;;;;;3.75;1.85;;;;;;;;;;4434718;32;20290;-54
2021/09/19 14:09:16;;;;;;;8.13;2.50;;;;;;;;;;4429560;32;20286;-54
2021/09/19 14:11:41;;;;;;;4.28;1.87;;;;;;;;;;4418686;32;20284;-54
2021/09/19 14:14:08;;;;;;;7.35;1.67;;;;;;;;;;4421136;32;20677;-54
2021/09/19 14:16:35;;;;;;;5.50;1.73;;;;;;;;;;4434800;32;20224;-54
2021/09/19 14:19:04;;;;;;;2.90;1.83;;;;;;;;;;4415287;32;20619;-54
2021/09/19 14:21:31;;;;;;;3.05;1.45;;;;;;;;;;4422209;32;20217;-54
2021/09/19 14:23:57;;;;;;;4.65;1.60;;;;;;;;;;4422250;32;20315;-54
2021/09/19 14:26:23;;;;;;;4.68;1.52;;;;;;;;;;4434223;32;20653;-54
2021/09/19 14:28:48;;;;;;;3.47;1.67;;;;;;;;;;4433504;32;20259;-56
2021/09/19 14:31:14;;;;;;;2.75;1.48;;;;;;;;;;4420081;32;20534;-54
2021/09/19 14:33:40;;;;;;;4.50;1.50;;;;;;;;;;4422509;32;20663;-55
2021/09/19 14:36:06;;;;;;;6.18;1.85;;;;;;;;;;4418203;32;20309;-54
2021/09/19 14:38:32;;;;;;;9.70;1.80;;;;;;;;;;4419242;32;20304;-54
2021/09/19 14:40:57;;;;;;;3.08;1.87;;;;;;;;;;4431183;32;20311;-53
2021/09/19 14:43:23;;;;;;;2.60;1.73;;;;;;;;;;4433529;32;20423;-54